sensor_id;sensor_type;location;lat;lon;timestamp;P1;durP1;ratioP1;P2;durP2;ratioP2
13793;SDS011;31160;49.500;7.772;2023-08-30T00:01:31;2.20;;;2.00;;
13793;SDS011;31160;49.500;7.772;2023-08-30T00:03:59;3.07;;;2.43;;
13793;SDS011;31160;49.500;7.772;2023-08-30T00:06:26;3.73;;;2.07;;
13793;SDS011;31160;49.500;7.772;2023-08-30T00:08:55;3.97;;;2.20;;
13793;SDS011;31160;49.500;7.772;2023-08-30T00:11:23;7.90;;;2.30;;
13793;SDS011;31160;49.500;7.772;2023-08-30T00:13:51;2.40;;;2.20;;
13793;SDS011;31160;49.500;7.772;2023-08-30T00:16:19;3.57;;;2.67;;
13793;SDS011;31160;49.500;7.772;2023-08-30T00:18:46;2.40;;;1.97;;
13793;SDS011;31160;49.500;7.772;2023-08-30T00:21:14;3.23;;;2.57;;
13793;SDS011;31160;49.500;7.772;2023-08-30T00:23:43;4.13;;;2.23;;
13793;SDS011;31160;49.500;7.772;2023-08-30T00:26:10;2.27;;;1.93;;
13793;SDS011;31160;49.500;7.772;2023-08-30T00:28:38;2.10;;;1.90;;
13793;SDS011;31160;49.500;7.772;2023-08-30T00:31:05;2.50;;;2.13;;
13793;SDS011;31160;49.500;7.772;2023-08-30T00:33:33;2.57;;;1.90;;
13793;SDS011;31160;49.500;7.772;2023-08-30T00:36:01;3.70;;;2.27;;
13793;SDS011;31160;49.500;7.772;2023-08-30T00:38:29;4.03;;;2.47;;
13793;SDS011;31160;49.500;7.772;2023-08-30T00:40:57;5.40;;;2.23;;
13793;SDS011;31160;49.500;7.772;2023-08-30T00:43:24;3.30;;;2.03;;
13793;SDS011;31160;49.500;7.772;2023-08-30T00:45:53;3.50;;;2.60;;
13793;SDS011;31160;49.500;7.772;2023-08-30T00:48:20;3.13;;;2.10;;
13793;SDS011;31160;49.500;7.772;2023-08-30T00:50:49;5.10;;;2.17;;
13793;SDS011;31160;49.500;7.772;2023-08-30T00:53:16;2.80;;;2.20;;
13793;SDS011;31160;49.500;7.772;2023-08-30T00:55:44;2.67;;;1.90;;
13793;SDS011;31160;49.500;7.772;2023-08-30T00:58:11;3.27;;;1.77;;
13793;SDS011;31160;49.500;7.772;2023-08-30T01:00:38;2.47;;;2.10;;
13793;SDS011;31160;49.500;7.772;2023-08-30T01:03:06;2.67;;;2.03;;
13793;SDS011;31160;49.500;7.772;2023-08-30T01:05:36;3.17;;;2.30;;
13793;SDS011;31160;49.500;7.772;2023-08-30T01:08:03;2.70;;;2.00;;
13793;SDS011;31160;49.500;7.772;2023-08-30T01:10:39;3.30;;;2.30;;
13793;SDS011;31160;49.500;7.772;2023-08-30T01:13:18;3.43;;;2.30;;
13793;SDS011;31160;49.500;7.772;2023-08-30T01:15:47;3.73;;;2.43;;
13793;SDS011;31160;49.500;7.772;2023-08-30T01:18:16;2.80;;;2.10;;
13793;SDS011;31160;49.500;7.772;2023-08-30T01:20:45;4.83;;;2.17;;
13793;SDS011;31160;49.500;7.772;2023-08-30T01:23:22;3.83;;;2.40;;
13793;SDS011;31160;49.500;7.772;2023-08-30T01:29:00;2.80;;;2.20;;
13793;SDS011;31160;49.500;7.772;2023-08-30T01:31:29;2.70;;;2.30;;
13793;SDS011;31160;49.500;7.772;2023-08-30T01:34:01;3.07;;;2.40;;
13793;SDS011;31160;49.500;7.772;2023-08-30T01:36:29;3.50;;;2.70;;
13793;SDS011;31160;49.500;7.772;2023-08-30T01:39:00;4.00;;;2.60;;
13793;SDS011;31160;49.500;7.772;2023-08-30T01:41:27;5.40;;;2.40;;
13793;SDS011;31160;49.500;7.772;2023-08-30T01:43:55;2.77;;;2.13;;
13793;SDS011;31160;49.500;7.772;2023-08-30T01:46:25;3.20;;;2.33;;
13793;SDS011;31160;49.500;7.772;2023-08-30T01:48:52;4.70;;;2.17;;
13793;SDS011;31160;49.500;7.772;2023-08-30T01:51:20;4.77;;;2.30;;
13793;SDS011;31160;49.500;7.772;2023-08-30T01:53:48;2.30;;;2.10;;
13793;SDS011;31160;49.500;7.772;2023-08-30T01:56:17;2.40;;;2.17;;
13793;SDS011;31160;49.500;7.772;2023-08-30T01:58:44;5.10;;;2.33;;
13793;SDS011;31160;49.500;7.772;2023-08-30T02:01:11;7.50;;;2.57;;
13793;SDS011;31160;49.500;7.772;2023-08-30T02:03:38;7.40;;;2.10;;
13793;SDS011;31160;49.500;7.772;2023-08-30T02:06:09;3.17;;;1.90;;
13793;SDS011;31160;49.500;7.772;2023-08-30T02:08:41;6.73;;;2.60;;
13793;SDS011;31160;49.500;7.772;2023-08-30T02:11:17;4.73;;;2.53;;
13793;SDS011;31160;49.500;7.772;2023-08-30T02:13:48;7.93;;;2.23;;
13793;SDS011;31160;49.500;7.772;2023-08-30T02:16:16;3.30;;;2.40;;
13793;SDS011;31160;49.500;7.772;2023-08-30T02:18:44;2.73;;;2.47;;
13793;SDS011;31160;49.500;7.772;2023-08-30T02:21:11;3.07;;;2.20;;
13793;SDS011;31160;49.500;7.772;2023-08-30T02:23:39;3.43;;;2.10;;
13793;SDS011;31160;49.500;7.772;2023-08-30T02:26:05;3.37;;;2.70;;
13793;SDS011;31160;49.500;7.772;2023-08-30T02:28:32;7.67;;;2.90;;
13793;SDS011;31160;49.500;7.772;2023-08-30T02:30:59;2.63;;;2.30;;
13793;SDS011;31160;49.500;7.772;2023-08-30T02:33:26;3.50;;;2.47;;
13793;SDS011;31160;49.500;7.772;2023-08-30T02:35:52;2.30;;;2.00;;
13793;SDS011;31160;49.500;7.772;2023-08-30T02:38:20;3.97;;;2.27;;
13793;SDS011;31160;49.500;7.772;2023-08-30T02:40:47;5.00;;;2.30;;
13793;SDS011;31160;49.500;7.772;2023-08-30T02:43:16;3.70;;;2.33;;
13793;SDS011;31160;49.500;7.772;2023-08-30T02:45:43;4.33;;;2.17;;
13793;SDS011;31160;49.500;7.772;2023-08-30T02:48:10;3.20;;;2.80;;
13793;SDS011;31160;49.500;7.772;2023-08-30T02:50:37;3.40;;;3.00;;
13793;SDS011;31160;49.500;7.772;2023-08-30T02:53:04;2.93;;;2.67;;
13793;SDS011;31160;49.500;7.772;2023-08-30T02:55:34;2.87;;;2.60;;
13793;SDS011;31160;49.500;7.772;2023-08-30T02:58:01;3.80;;;2.27;;
13793;SDS011;31160;49.500;7.772;2023-08-30T03:00:28;2.97;;;2.50;;
13793;SDS011;31160;49.500;7.772;2023-08-30T03:02:56;5.93;;;2.63;;
13793;SDS011;31160;49.500;7.772;2023-08-30T03:05:23;4.77;;;2.70;;
13793;SDS011;31160;49.500;7.772;2023-08-30T03:07:50;3.73;;;2.80;;
13793;SDS011;31160;49.500;7.772;2023-08-30T03:10:17;3.23;;;2.40;;
13793;SDS011;31160;49.500;7.772;2023-08-30T03:12:44;2.70;;;2.47;;
13793;SDS011;31160;49.500;7.772;2023-08-30T03:15:11;2.97;;;2.53;;
13793;SDS011;31160;49.500;7.772;2023-08-30T03:17:37;3.63;;;2.40;;
13793;SDS011;31160;49.500;7.772;2023-08-30T03:20:05;3.00;;;2.70;;
13793;SDS011;31160;49.500;7.772;2023-08-30T03:22:32;3.40;;;2.80;;
13793;SDS011;31160;49.500;7.772;2023-08-30T03:24:59;3.73;;;2.53;;
13793;SDS011;31160;49.500;7.772;2023-08-30T03:27:29;3.87;;;2.70;;
13793;SDS011;31160;49.500;7.772;2023-08-30T03:29:56;3.13;;;2.37;;
13793;SDS011;31160;49.500;7.772;2023-08-30T03:32:23;3.30;;;2.93;;
13793;SDS011;31160;49.500;7.772;2023-08-30T03:34:50;2.67;;;2.40;;
13793;SDS011;31160;49.500;7.772;2023-08-30T03:37:17;4.27;;;2.90;;
13793;SDS011;31160;49.500;7.772;2023-08-30T03:39:44;2.67;;;2.47;;
13793;SDS011;31160;49.500;7.772;2023-08-30T03:42:10;3.27;;;2.47;;
13793;SDS011;31160;49.500;7.772;2023-08-30T03:44:37;5.47;;;3.00;;
13793;SDS011;31160;49.500;7.772;2023-08-30T03:47:06;4.57;;;3.30;;
13793;SDS011;31160;49.500;7.772;2023-08-30T03:49:32;4.63;;;3.57;;
13793;SDS011;31160;49.500;7.772;2023-08-30T03:51:59;5.77;;;3.83;;
13793;SDS011;31160;49.500;7.772;2023-08-30T03:54:26;4.53;;;4.03;;
13793;SDS011;31160;49.500;7.772;2023-08-30T03:56:53;5.43;;;3.80;;
13793;SDS011;31160;49.500;7.772;2023-08-30T03:59:20;4.90;;;3.90;;
13793;SDS011;31160;49.500;7.772;2023-08-30T04:01:50;4.73;;;3.90;;
13793;SDS011;31160;49.500;7.772;2023-08-30T04:04:17;8.37;;;3.83;;
13793;SDS011;31160;49.500;7.772;2023-08-30T04:06:44;7.37;;;3.23;;
13793;SDS011;31160;49.500;7.772;2023-08-30T04:09:11;6.37;;;3.37;;
13793;SDS011;31160;49.500;7.772;2023-08-30T04:11:37;3.70;;;2.97;;
13793;SDS011;31160;49.500;7.772;2023-08-30T04:14:04;3.20;;;2.60;;
13793;SDS011;31160;49.500;7.772;2023-08-30T04:16:31;3.60;;;2.90;;
13793;SDS011;31160;49.500;7.772;2023-08-30T04:18:58;4.93;;;2.90;;
13793;SDS011;31160;49.500;7.772;2023-08-30T04:21:24;5.03;;;3.37;;
13793;SDS011;31160;49.500;7.772;2023-08-30T04:23:51;4.07;;;3.67;;
13793;SDS011;31160;49.500;7.772;2023-08-30T04:26:18;4.03;;;3.50;;
13793;SDS011;31160;49.500;7.772;2023-08-30T04:28:45;4.93;;;3.00;;
13793;SDS011;31160;49.500;7.772;2023-08-30T04:31:11;4.83;;;2.97;;
13793;SDS011;31160;49.500;7.772;2023-08-30T04:33:39;6.73;;;3.50;;
13793;SDS011;31160;49.500;7.772;2023-08-30T04:36:06;6.47;;;4.00;;
13793;SDS011;31160;49.500;7.772;2023-08-30T04:38:33;5.30;;;3.90;;
13793;SDS011;31160;49.500;7.772;2023-08-30T04:41:10;4.07;;;3.67;;
13793;SDS011;31160;49.500;7.772;2023-08-30T04:43:37;4.40;;;4.00;;
13793;SDS011;31160;49.500;7.772;2023-08-30T04:46:04;5.10;;;3.90;;
13793;SDS011;31160;49.500;7.772;2023-08-30T04:48:31;5.47;;;4.50;;
13793;SDS011;31160;49.500;7.772;2023-08-30T04:51:01;5.23;;;3.80;;
13793;SDS011;31160;49.500;7.772;2023-08-30T04:53:32;7.27;;;3.70;;
13793;SDS011;31160;49.500;7.772;2023-08-30T04:55:59;4.47;;;3.87;;
13793;SDS011;31160;49.500;7.772;2023-08-30T04:58:27;6.07;;;3.93;;
13793;SDS011;31160;49.500;7.772;2023-08-30T05:00:56;5.07;;;3.20;;
13793;SDS011;31160;49.500;7.772;2023-08-30T05:03:23;3.93;;;3.40;;
13793;SDS011;31160;49.500;7.772;2023-08-30T05:05:50;6.93;;;3.40;;
13793;SDS011;31160;49.500;7.772;2023-08-30T05:08:17;6.10;;;3.30;;
13793;SDS011;31160;49.500;7.772;2023-08-30T05:10:44;5.43;;;3.33;;
13793;SDS011;31160;49.500;7.772;2023-08-30T05:13:15;3.53;;;2.87;;
13793;SDS011;31160;49.500;7.772;2023-08-30T05:15:42;5.63;;;3.93;;
13793;SDS011;31160;49.500;7.772;2023-08-30T05:18:09;3.73;;;3.37;;
13793;SDS011;31160;49.500;7.772;2023-08-30T05:20:36;4.47;;;3.60;;
13793;SDS011;31160;49.500;7.772;2023-08-30T05:23:03;5.70;;;5.10;;
13793;SDS011;31160;49.500;7.772;2023-08-30T05:25:30;6.00;;;5.40;;
13793;SDS011;31160;49.500;7.772;2023-08-30T05:27:57;7.37;;;6.23;;
13793;SDS011;31160;49.500;7.772;2023-08-30T05:30:23;8.17;;;7.17;;
13793;SDS011;31160;49.500;7.772;2023-08-30T05:32:53;10.47;;;9.20;;
13793;SDS011;31160;49.500;7.772;2023-08-30T05:35:38;14.20;;;10.57;;
13793;SDS011;31160;49.500;7.772;2023-08-30T05:38:24;15.10;;;12.10;;
13793;SDS011;31160;49.500;7.772;2023-08-30T05:41:00;16.83;;;12.53;;
13793;SDS011;31160;49.500;7.772;2023-08-30T05:43:28;12.90;;;10.80;;
13793;SDS011;31160;49.500;7.772;2023-08-30T05:45:54;13.90;;;10.57;;
13793;SDS011;31160;49.500;7.772;2023-08-30T05:48:30;15.53;;;12.73;;
13793;SDS011;31160;49.500;7.772;2023-08-30T05:50:59;17.27;;;13.57;;
13793;SDS011;31160;49.500;7.772;2023-08-30T05:53:25;15.93;;;12.57;;
13793;SDS011;31160;49.500;7.772;2023-08-30T05:55:53;19.13;;;14.70;;
13793;SDS011;31160;49.500;7.772;2023-08-30T05:58:20;16.47;;;13.23;;
13793;SDS011;31160;49.500;7.772;2023-08-30T06:00:47;18.57;;;13.03;;
13793;SDS011;31160;49.500;7.772;2023-08-30T06:03:14;18.17;;;12.53;;
13793;SDS011;31160;49.500;7.772;2023-08-30T06:05:41;15.43;;;12.43;;
13793;SDS011;31160;49.500;7.772;2023-08-30T06:08:09;15.80;;;13.00;;
13793;SDS011;31160;49.500;7.772;2023-08-30T06:10:36;14.33;;;12.53;;
13793;SDS011;31160;49.500;7.772;2023-08-30T06:13:03;17.23;;;13.80;;
13793;SDS011;31160;49.500;7.772;2023-08-30T06:15:29;20.83;;;14.43;;
13793;SDS011;31160;49.500;7.772;2023-08-30T06:17:56;17.23;;;14.53;;
13793;SDS011;31160;49.500;7.772;2023-08-30T06:20:24;16.83;;;13.83;;
13793;SDS011;31160;49.500;7.772;2023-08-30T06:22:51;18.40;;;14.17;;
13793;SDS011;31160;49.500;7.772;2023-08-30T06:25:18;17.37;;;13.80;;
13793;SDS011;31160;49.500;7.772;2023-08-30T06:27:54;18.03;;;14.00;;
13793;SDS011;31160;49.500;7.772;2023-08-30T06:30:28;17.43;;;13.13;;
13793;SDS011;31160;49.500;7.772;2023-08-30T06:32:58;17.93;;;13.93;;
13793;SDS011;31160;49.500;7.772;2023-08-30T06:35:25;15.13;;;12.90;;
13793;SDS011;31160;49.500;7.772;2023-08-30T06:37:52;17.00;;;14.03;;
13793;SDS011;31160;49.500;7.772;2023-08-30T06:40:19;16.73;;;13.73;;
13793;SDS011;31160;49.500;7.772;2023-08-30T06:42:46;17.80;;;13.90;;
13793;SDS011;31160;49.500;7.772;2023-08-30T06:45:12;17.50;;;14.10;;
13793;SDS011;31160;49.500;7.772;2023-08-30T06:47:39;15.93;;;12.67;;
13793;SDS011;31160;49.500;7.772;2023-08-30T06:50:06;16.40;;;13.43;;
13793;SDS011;31160;49.500;7.772;2023-08-30T06:52:35;17.53;;;13.83;;
13793;SDS011;31160;49.500;7.772;2023-08-30T06:55:03;16.87;;;14.47;;
13793;SDS011;31160;49.500;7.772;2023-08-30T06:57:30;17.67;;;13.63;;
13793;SDS011;31160;49.500;7.772;2023-08-30T06:59:56;16.93;;;13.87;;
13793;SDS011;31160;49.500;7.772;2023-08-30T07:02:25;17.73;;;13.23;;
13793;SDS011;31160;49.500;7.772;2023-08-30T07:04:52;18.17;;;14.17;;
13793;SDS011;31160;49.500;7.772;2023-08-30T07:07:19;18.23;;;14.60;;
13793;SDS011;31160;49.500;7.772;2023-08-30T07:09:45;16.23;;;13.40;;
13793;SDS011;31160;49.500;7.772;2023-08-30T07:12:12;17.63;;;14.43;;
13793;SDS011;31160;49.500;7.772;2023-08-30T07:14:39;17.10;;;13.37;;
13793;SDS011;31160;49.500;7.772;2023-08-30T07:17:05;18.53;;;14.73;;
13793;SDS011;31160;49.500;7.772;2023-08-30T07:19:33;18.50;;;14.30;;
13793;SDS011;31160;49.500;7.772;2023-08-30T07:22:00;18.37;;;13.73;;
13793;SDS011;31160;49.500;7.772;2023-08-30T07:24:26;17.60;;;13.97;;
13793;SDS011;31160;49.500;7.772;2023-08-30T07:26:53;18.07;;;13.53;;
13793;SDS011;31160;49.500;7.772;2023-08-30T07:29:20;16.67;;;12.47;;
13793;SDS011;31160;49.500;7.772;2023-08-30T07:31:47;18.20;;;14.10;;
13793;SDS011;31160;49.500;7.772;2023-08-30T07:34:17;16.53;;;12.63;;
13793;SDS011;31160;49.500;7.772;2023-08-30T07:36:44;15.83;;;12.67;;
13793;SDS011;31160;49.500;7.772;2023-08-30T07:39:13;17.00;;;13.17;;
13793;SDS011;31160;49.500;7.772;2023-08-30T07:41:40;21.00;;;11.77;;
13793;SDS011;31160;49.500;7.772;2023-08-30T07:44:07;14.60;;;11.27;;
13793;SDS011;31160;49.500;7.772;2023-08-30T07:46:34;12.97;;;11.20;;
13793;SDS011;31160;49.500;7.772;2023-08-30T07:49:01;15.07;;;11.33;;
13793;SDS011;31160;49.500;7.772;2023-08-30T07:51:28;16.73;;;11.90;;
13793;SDS011;31160;49.500;7.772;2023-08-30T07:53:55;16.20;;;13.27;;
13793;SDS011;31160;49.500;7.772;2023-08-30T07:56:22;16.40;;;12.43;;
13793;SDS011;31160;49.500;7.772;2023-08-30T07:58:48;15.50;;;11.80;;
13793;SDS011;31160;49.500;7.772;2023-08-30T08:01:15;17.17;;;13.20;;
13793;SDS011;31160;49.500;7.772;2023-08-30T08:03:42;16.27;;;12.63;;
13793;SDS011;31160;49.500;7.772;2023-08-30T08:06:25;16.98;;;14.40;;
13793;SDS011;31160;49.500;7.772;2023-08-30T08:08:52;13.73;;;11.57;;
13793;SDS011;31160;49.500;7.772;2023-08-30T08:11:19;14.93;;;12.47;;
13793;SDS011;31160;49.500;7.772;2023-08-30T08:13:46;16.23;;;12.27;;
13793;SDS011;31160;49.500;7.772;2023-08-30T08:16:13;15.50;;;11.50;;
13793;SDS011;31160;49.500;7.772;2023-08-30T08:18:39;16.30;;;11.97;;
13793;SDS011;31160;49.500;7.772;2023-08-30T08:21:06;17.17;;;12.77;;
13793;SDS011;31160;49.500;7.772;2023-08-30T08:23:33;17.10;;;12.70;;
13793;SDS011;31160;49.500;7.772;2023-08-30T08:26:00;15.67;;;12.13;;
13793;SDS011;31160;49.500;7.772;2023-08-30T08:28:28;17.57;;;11.33;;
13793;SDS011;31160;49.500;7.772;2023-08-30T08:30:55;14.73;;;11.63;;
13793;SDS011;31160;49.500;7.772;2023-08-30T08:33:22;16.03;;;11.93;;
13793;SDS011;31160;49.500;7.772;2023-08-30T08:35:50;14.10;;;10.83;;
13793;SDS011;31160;49.500;7.772;2023-08-30T08:38:17;13.87;;;10.73;;
13793;SDS011;31160;49.500;7.772;2023-08-30T08:40:43;14.87;;;11.20;;
13793;SDS011;31160;49.500;7.772;2023-08-30T08:43:10;13.63;;;10.80;;
13793;SDS011;31160;49.500;7.772;2023-08-30T08:45:40;16.57;;;11.87;;
13793;SDS011;31160;49.500;7.772;2023-08-30T08:48:07;18.80;;;11.70;;
13793;SDS011;31160;49.500;7.772;2023-08-30T08:50:36;17.07;;;11.43;;
13793;SDS011;31160;49.500;7.772;2023-08-30T08:53:03;13.37;;;10.23;;
13793;SDS011;31160;49.500;7.772;2023-08-30T08:55:31;13.27;;;9.93;;
13793;SDS011;31160;49.500;7.772;2023-08-30T08:58:00;11.77;;;9.13;;
13793;SDS011;31160;49.500;7.772;2023-08-30T09:00:30;13.57;;;9.10;;
13793;SDS011;31160;49.500;7.772;2023-08-30T09:02:57;13.27;;;9.47;;
13793;SDS011;31160;49.500;7.772;2023-08-30T09:05:25;11.40;;;8.70;;
13793;SDS011;31160;49.500;7.772;2023-08-30T09:07:53;12.95;;;9.38;;
13793;SDS011;31160;49.500;7.772;2023-08-30T09:10:21;9.93;;;7.77;;
13793;SDS011;31160;49.500;7.772;2023-08-30T09:12:48;11.97;;;8.70;;
13793;SDS011;31160;49.500;7.772;2023-08-30T09:15:15;11.07;;;7.27;;
13793;SDS011;31160;49.500;7.772;2023-08-30T09:17:44;8.77;;;7.30;;
13793;SDS011;31160;49.500;7.772;2023-08-30T09:20:13;7.40;;;6.03;;
13793;SDS011;31160;49.500;7.772;2023-08-30T09:22:40;7.83;;;6.20;;
13793;SDS011;31160;49.500;7.772;2023-08-30T09:25:08;8.73;;;6.40;;
13793;SDS011;31160;49.500;7.772;2023-08-30T09:27:36;6.70;;;5.80;;
13793;SDS011;31160;49.500;7.772;2023-08-30T09:30:08;6.60;;;5.57;;
13793;SDS011;31160;49.500;7.772;2023-08-30T09:32:40;6.53;;;5.90;;
13793;SDS011;31160;49.500;7.772;2023-08-30T09:35:11;7.70;;;5.90;;
13793;SDS011;31160;49.500;7.772;2023-08-30T09:37:38;6.47;;;5.03;;
13793;SDS011;31160;49.500;7.772;2023-08-30T09:40:06;5.50;;;5.00;;
13793;SDS011;31160;49.500;7.772;2023-08-30T09:42:34;5.87;;;5.33;;
13793;SDS011;31160;49.500;7.772;2023-08-30T09:45:06;5.83;;;4.90;;
13793;SDS011;31160;49.500;7.772;2023-08-30T09:47:46;4.93;;;4.33;;
13793;SDS011;31160;49.500;7.772;2023-08-30T09:50:20;6.03;;;4.63;;
13793;SDS011;31160;49.500;7.772;2023-08-30T09:52:49;6.13;;;4.30;;
13793;SDS011;31160;49.500;7.772;2023-08-30T09:55:18;5.10;;;4.43;;
13793;SDS011;31160;49.500;7.772;2023-08-30T09:57:47;6.77;;;4.57;;
13793;SDS011;31160;49.500;7.772;2023-08-30T10:00:15;4.40;;;3.93;;
13793;SDS011;31160;49.500;7.772;2023-08-30T10:02:42;5.63;;;4.10;;
13793;SDS011;31160;49.500;7.772;2023-08-30T10:05:30;4.00;;;3.53;;
13793;SDS011;31160;49.500;7.772;2023-08-30T10:07:58;4.17;;;3.77;;
13793;SDS011;31160;49.500;7.772;2023-08-30T10:10:25;3.63;;;3.20;;
13793;SDS011;31160;49.500;7.772;2023-08-30T10:12:52;3.60;;;3.30;;
13793;SDS011;31160;49.500;7.772;2023-08-30T10:15:35;3.73;;;2.57;;
13793;SDS011;31160;49.500;7.772;2023-08-30T10:18:07;4.93;;;3.10;;
13793;SDS011;31160;49.500;7.772;2023-08-30T10:20:36;3.40;;;2.40;;
13793;SDS011;31160;49.500;7.772;2023-08-30T10:23:07;3.77;;;2.93;;
13793;SDS011;31160;49.500;7.772;2023-08-30T10:25:35;3.07;;;2.67;;
13793;SDS011;31160;49.500;7.772;2023-08-30T10:28:04;3.50;;;2.40;;
13793;SDS011;31160;49.500;7.772;2023-08-30T10:30:31;2.30;;;2.10;;
13793;SDS011;31160;49.500;7.772;2023-08-30T10:32:58;3.27;;;2.50;;
13793;SDS011;31160;49.500;7.772;2023-08-30T10:35:26;4.37;;;2.90;;
13793;SDS011;31160;49.500;7.772;2023-08-30T10:37:56;5.10;;;2.93;;
13793;SDS011;31160;49.500;7.772;2023-08-30T10:40:26;3.00;;;2.53;;
13793;SDS011;31160;49.500;7.772;2023-08-30T10:43:02;5.57;;;4.67;;
13793;SDS011;31160;49.500;7.772;2023-08-30T10:45:30;5.73;;;4.93;;
13793;SDS011;31160;49.500;7.772;2023-08-30T10:47:57;9.83;;;5.57;;
13793;SDS011;31160;49.500;7.772;2023-08-30T10:50:31;5.23;;;4.73;;
13793;SDS011;31160;49.500;7.772;2023-08-30T10:53:00;7.70;;;4.63;;
13793;SDS011;31160;49.500;7.772;2023-08-30T10:55:27;5.43;;;3.77;;
13793;SDS011;31160;49.500;7.772;2023-08-30T10:57:58;11.10;;;3.97;;
13793;SDS011;31160;49.500;7.772;2023-08-30T11:00:29;5.07;;;3.00;;
13793;SDS011;31160;49.500;7.772;2023-08-30T11:02:57;3.03;;;2.73;;
13793;SDS011;31160;49.500;7.772;2023-08-30T11:05:24;4.60;;;3.13;;
13793;SDS011;31160;49.500;7.772;2023-08-30T11:07:52;3.43;;;2.87;;
13793;SDS011;31160;49.500;7.772;2023-08-30T11:10:20;5.30;;;2.53;;
13793;SDS011;31160;49.500;7.772;2023-08-30T11:12:47;3.93;;;2.73;;
13793;SDS011;31160;49.500;7.772;2023-08-30T11:15:16;3.70;;;2.90;;
13793;SDS011;31160;49.500;7.772;2023-08-30T11:17:43;5.30;;;2.70;;
13793;SDS011;31160;49.500;7.772;2023-08-30T11:20:11;3.70;;;2.23;;
13793;SDS011;31160;49.500;7.772;2023-08-30T11:22:47;3.10;;;2.37;;
13793;SDS011;31160;49.500;7.772;2023-08-30T11:25:15;2.10;;;1.90;;
13793;SDS011;31160;49.500;7.772;2023-08-30T11:27:43;4.90;;;2.50;;
13793;SDS011;31160;49.500;7.772;2023-08-30T11:30:10;3.77;;;2.10;;
13793;SDS011;31160;49.500;7.772;2023-08-30T11:32:38;3.27;;;2.00;;
13793;SDS011;31160;49.500;7.772;2023-08-30T11:35:06;5.47;;;2.30;;
13793;SDS011;31160;49.500;7.772;2023-08-30T11:37:33;2.93;;;2.27;;
13793;SDS011;31160;49.500;7.772;2023-08-30T11:40:03;2.77;;;2.13;;
13793;SDS011;31160;49.500;7.772;2023-08-30T11:42:32;4.47;;;2.30;;
13793;SDS011;31160;49.500;7.772;2023-08-30T11:45:00;2.03;;;1.70;;
13793;SDS011;31160;49.500;7.772;2023-08-30T11:47:27;3.33;;;2.23;;
13793;SDS011;31160;49.500;7.772;2023-08-30T11:49:55;2.93;;;2.10;;
13793;SDS011;31160;49.500;7.772;2023-08-30T11:52:23;3.03;;;2.07;;
13793;SDS011;31160;49.500;7.772;2023-08-30T11:54:51;3.47;;;2.27;;
13793;SDS011;31160;49.500;7.772;2023-08-30T11:57:19;5.67;;;2.33;;
13793;SDS011;31160;49.500;7.772;2023-08-30T11:59:47;3.43;;;2.10;;
13793;SDS011;31160;49.500;7.772;2023-08-30T12:02:15;2.67;;;1.70;;
13793;SDS011;31160;49.500;7.772;2023-08-30T12:04:44;5.03;;;2.00;;
13793;SDS011;31160;49.500;7.772;2023-08-30T12:07:22;2.20;;;1.63;;
13793;SDS011;31160;49.500;7.772;2023-08-30T12:09:49;3.17;;;1.90;;
13793;SDS011;31160;49.500;7.772;2023-08-30T12:12:16;2.93;;;1.87;;
13793;SDS011;31160;49.500;7.772;2023-08-30T12:14:43;3.77;;;2.00;;
13793;SDS011;31160;49.500;7.772;2023-08-30T12:17:10;3.70;;;1.60;;
13793;SDS011;31160;49.500;7.772;2023-08-30T12:19:39;4.03;;;1.63;;
13793;SDS011;31160;49.500;7.772;2023-08-30T12:22:09;4.40;;;1.97;;
13793;SDS011;31160;49.500;7.772;2023-08-30T12:27:09;3.13;;;1.70;;
13793;SDS011;31160;49.500;7.772;2023-08-30T12:29:36;3.80;;;2.07;;
13793;SDS011;31160;49.500;7.772;2023-08-30T12:32:03;4.53;;;1.80;;
13793;SDS011;31160;49.500;7.772;2023-08-30T12:34:30;4.90;;;1.80;;
13793;SDS011;31160;49.500;7.772;2023-08-30T12:36:57;2.20;;;1.83;;
13793;SDS011;31160;49.500;7.772;2023-08-30T12:39:24;3.80;;;2.27;;
13793;SDS011;31160;49.500;7.772;2023-08-30T12:41:50;5.07;;;2.13;;
13793;SDS011;31160;49.500;7.772;2023-08-30T12:44:17;2.47;;;1.60;;
13793;SDS011;31160;49.500;7.772;2023-08-30T12:46:44;4.33;;;1.90;;
13793;SDS011;31160;49.500;7.772;2023-08-30T12:49:11;3.00;;;1.80;;
13793;SDS011;31160;49.500;7.772;2023-08-30T12:51:37;3.00;;;1.87;;
13793;SDS011;31160;49.500;7.772;2023-08-30T12:54:04;2.63;;;1.67;;
13793;SDS011;31160;49.500;7.772;2023-08-30T12:56:31;4.00;;;1.90;;
13793;SDS011;31160;49.500;7.772;2023-08-30T12:58:58;2.07;;;1.57;;
13793;SDS011;31160;49.500;7.772;2023-08-30T13:01:25;2.07;;;1.60;;
13793;SDS011;31160;49.500;7.772;2023-08-30T13:03:51;3.13;;;1.77;;
13793;SDS011;31160;49.500;7.772;2023-08-30T13:06:18;2.27;;;1.67;;
13793;SDS011;31160;49.500;7.772;2023-08-30T13:08:45;3.40;;;1.87;;
13793;SDS011;31160;49.500;7.772;2023-08-30T13:11:12;2.67;;;1.57;;
13793;SDS011;31160;49.500;7.772;2023-08-30T13:13:38;3.50;;;1.40;;
13793;SDS011;31160;49.500;7.772;2023-08-30T13:16:05;2.37;;;1.60;;
13793;SDS011;31160;49.500;7.772;2023-08-30T13:18:32;2.30;;;1.57;;
13793;SDS011;31160;49.500;7.772;2023-08-30T13:20:58;3.43;;;1.90;;
13793;SDS011;31160;49.500;7.772;2023-08-30T13:23:25;3.67;;;1.77;;
13793;SDS011;31160;49.500;7.772;2023-08-30T13:25:52;2.00;;;1.33;;
13793;SDS011;31160;49.500;7.772;2023-08-30T13:28:18;3.27;;;1.80;;
13793;SDS011;31160;49.500;7.772;2023-08-30T13:30:45;2.17;;;1.47;;
13793;SDS011;31160;49.500;7.772;2023-08-30T13:33:13;2.33;;;2.00;;
13793;SDS011;31160;49.500;7.772;2023-08-30T13:35:40;3.07;;;1.80;;
13793;SDS011;31160;49.500;7.772;2023-08-30T13:38:07;3.10;;;1.80;;
13793;SDS011;31160;49.500;7.772;2023-08-30T13:40:34;4.57;;;1.80;;
13793;SDS011;31160;49.500;7.772;2023-08-30T13:43:00;3.70;;;1.90;;
13793;SDS011;31160;49.500;7.772;2023-08-30T13:45:27;2.23;;;1.60;;
13793;SDS011;31160;49.500;7.772;2023-08-30T13:47:54;2.57;;;1.93;;
13793;SDS011;31160;49.500;7.772;2023-08-30T13:50:21;3.00;;;1.40;;
13793;SDS011;31160;49.500;7.772;2023-08-30T13:52:48;5.27;;;1.83;;
13793;SDS011;31160;49.500;7.772;2023-08-30T13:55:15;2.87;;;1.83;;
13793;SDS011;31160;49.500;7.772;2023-08-30T13:57:42;2.13;;;1.23;;
13793;SDS011;31160;49.500;7.772;2023-08-30T14:00:09;2.73;;;1.90;;
13793;SDS011;31160;49.500;7.772;2023-08-30T14:02:36;2.63;;;1.40;;
13793;SDS011;31160;49.500;7.772;2023-08-30T14:05:03;3.47;;;1.87;;
13793;SDS011;31160;49.500;7.772;2023-08-30T14:07:30;4.00;;;1.70;;
13793;SDS011;31160;49.500;7.772;2023-08-30T14:09:57;2.97;;;1.60;;
13793;SDS011;31160;49.500;7.772;2023-08-30T14:12:24;2.20;;;1.60;;
13793;SDS011;31160;49.500;7.772;2023-08-30T14:14:51;3.80;;;1.70;;
13793;SDS011;31160;49.500;7.772;2023-08-30T14:17:19;2.90;;;1.70;;
13793;SDS011;31160;49.500;7.772;2023-08-30T14:19:47;3.60;;;1.70;;
13793;SDS011;31160;49.500;7.772;2023-08-30T14:22:14;2.63;;;1.87;;
13793;SDS011;31160;49.500;7.772;2023-08-30T14:24:42;2.13;;;1.77;;
13793;SDS011;31160;49.500;7.772;2023-08-30T14:27:28;4.50;;;1.90;;
13793;SDS011;31160;49.500;7.772;2023-08-30T14:29:55;3.57;;;1.80;;
13793;SDS011;31160;49.500;7.772;2023-08-30T14:32:22;3.53;;;2.03;;
13793;SDS011;31160;49.500;7.772;2023-08-30T14:34:49;4.03;;;1.80;;
13793;SDS011;31160;49.500;7.772;2023-08-30T14:37:15;2.20;;;2.00;;
13793;SDS011;31160;49.500;7.772;2023-08-30T14:39:42;2.10;;;1.57;;
13793;SDS011;31160;49.500;7.772;2023-08-30T14:42:09;3.07;;;2.00;;
13793;SDS011;31160;49.500;7.772;2023-08-30T14:44:35;3.80;;;2.10;;
13793;SDS011;31160;49.500;7.772;2023-08-30T14:47:02;3.43;;;2.00;;
13793;SDS011;31160;49.500;7.772;2023-08-30T14:49:30;3.40;;;2.00;;
13793;SDS011;31160;49.500;7.772;2023-08-30T14:51:58;2.23;;;1.60;;